Terminal Aerodrome Forecast
Issued by NWS

Home | Current Version | Previous Version | Text Only | Print | Product List | Glossary On
Versions: 1 2 3 4 5 6 7 8 9 10 11 12 13 14 15 16 17 18 19 20 21 22 23 24 25 26 27 28 29 30
000
FTUS45 KBOI 310022 AAA
TAFTWF
TAF AMD
KTWF 310022Z 3100/3124 29010KT P6SM VCSH BKN200
      TEMPO 3100/3102 24015G25KT -SHRA SCT120 BKN200
     FM310200 23010KT P6SM SCT100
     FM310700 26014KT P6SM VCSH SCT070 BKN100
     FM311000 24012KT P6SM SCT070 BKN100
     FM311600 27015G25KT P6SM SCT180=

USA.gov is the U.S. government's official web portal to all federal, state and local government web resources and services.